createdAt,value
2023-05-05T00:01:41.393Z,11.35
2023-05-05T00:04:08.173Z,7.85
2023-05-05T00:06:35.578Z,13.40
2023-05-05T00:09:02.844Z,16.38
2023-05-05T00:11:29.983Z,12.65
2023-05-05T00:13:56.809Z,9.27
2023-05-05T00:16:24.210Z,12.68
2023-05-05T00:18:51.202Z,15.23
2023-05-05T00:21:18.054Z,12.38
2023-05-05T00:23:44.892Z,9.75
2023-05-05T00:26:14.961Z,13.15
2023-05-05T00:28:42.970Z,11.57
2023-05-05T00:31:09.787Z,15.32
2023-05-05T00:33:36.700Z,11.98
2023-05-05T00:36:03.862Z,10.57
2023-05-05T00:38:30.703Z,9.77
2023-05-05T00:40:57.641Z,13.68
2023-05-05T00:43:24.881Z,10.38
2023-05-05T00:46:04.028Z,12.55
2023-05-05T00:48:31.888Z,13.23
2023-05-05T00:50:59.699Z,12.80
2023-05-05T00:53:28.322Z,10.48
2023-05-05T00:55:55.421Z,13.27
2023-05-05T00:58:22.313Z,9.25
2023-05-05T01:00:52.555Z,8.13
2023-05-05T01:03:19.465Z,12.40
2023-05-05T01:05:56.509Z,11.80
2023-05-05T01:08:23.317Z,11.63
2023-05-05T01:11:14.524Z,13.23
2023-05-05T01:13:47.480Z,10.82
2023-05-05T01:16:23.610Z,10.68
2023-05-05T01:19:01.395Z,11.70
2023-05-05T01:21:36.556Z,12.85
2023-05-05T01:27:27.382Z,10.55
2023-05-05T01:30:10.681Z,13.63
2023-05-05T01:32:48.190Z,13.65
2023-05-05T01:35:27.465Z,12.25
2023-05-05T01:38:05.563Z,11.32
2023-05-05T01:40:40.992Z,17.10
2023-05-05T01:43:09.578Z,11.18
2023-05-05T01:45:42.920Z,12.70
2023-05-05T01:48:14.718Z,9.23
2023-05-05T01:50:42.691Z,9.52
2023-05-05T01:53:10.603Z,10.15
2023-05-05T01:55:41.825Z,10.57
2023-05-05T01:58:11.089Z,10.25
2023-05-05T02:00:38.794Z,13.95
2023-05-05T02:03:08.643Z,11.90
2023-05-05T02:05:38.821Z,15.43
2023-05-05T02:08:06.560Z,15.15
2023-05-05T02:10:35.746Z,14.00
2023-05-05T02:13:03.197Z,11.10
2023-05-05T02:15:30.608Z,9.85
2023-05-05T02:17:58.192Z,15.93
2023-05-05T02:20:26.788Z,12.35
2023-05-05T02:22:54.218Z,13.00
2023-05-05T02:25:21.776Z,13.05
2023-05-05T02:27:49.383Z,14.23
2023-05-05T02:30:19.832Z,10.13
2023-05-05T02:32:54.270Z,12.10
2023-05-05T02:35:25.015Z,7.95
2023-05-05T02:38:00.205Z,14.07
2023-05-05T02:40:30.255Z,11.23
2023-05-05T02:43:01.042Z,16.58
2023-05-05T02:45:28.859Z,12.32
2023-05-05T02:47:55.975Z,15.32
2023-05-05T02:50:22.902Z,14.70
2023-05-05T02:52:49.872Z,11.40
2023-05-05T02:55:18.188Z,11.30
2023-05-05T02:57:50.005Z,11.82
2023-05-05T03:00:31.717Z,11.98
2023-05-05T03:03:17.826Z,12.70
2023-05-05T03:06:19.076Z,17.08
2023-05-05T03:09:14.239Z,16.65
2023-05-05T03:11:47.756Z,14.87
2023-05-05T03:14:19.146Z,11.75
2023-05-05T03:16:47.735Z,16.02
2023-05-05T03:19:18.358Z,14.30
2023-05-05T03:21:45.448Z,12.15
2023-05-05T03:24:19.707Z,16.95
2023-05-05T03:26:47.949Z,14.60
2023-05-05T03:29:15.737Z,13.10
2023-05-05T03:31:42.857Z,13.23
2023-05-05T03:34:09.687Z,13.82
2023-05-05T03:36:36.906Z,12.38
2023-05-05T03:39:03.884Z,13.93
2023-05-05T03:41:30.754Z,13.10
2023-05-05T03:43:57.571Z,13.98
2023-05-05T03:46:24.389Z,13.82
2023-05-05T03:48:51.641Z,18.10
2023-05-05T03:51:18.596Z,12.80
2023-05-05T03:53:45.611Z,12.10
2023-05-05T03:56:12.409Z,13.23
2023-05-05T03:58:39.168Z,11.68
2023-05-05T04:01:05.947Z,15.23
2023-05-05T04:03:32.983Z,10.63
2023-05-05T04:06:00.320Z,12.27
2023-05-05T04:08:27.072Z,10.30
2023-05-05T04:10:54.123Z,13.15
2023-05-05T04:13:20.914Z,11.73
2023-05-05T04:15:47.861Z,12.30
2023-05-05T04:18:14.672Z,15.02
2023-05-05T04:20:41.645Z,14.13
2023-05-05T04:23:08.503Z,11.23
2023-05-05T04:25:35.542Z,14.32
2023-05-05T04:28:02.960Z,12.00
2023-05-05T04:30:30.285Z,11.48
2023-05-05T04:32:57.276Z,12.07
2023-05-05T04:35:24.095Z,11.70
2023-05-05T04:37:51.107Z,10.45
2023-05-05T04:40:18.062Z,10.65
2023-05-05T04:42:44.869Z,11.50
2023-05-05T04:45:11.916Z,13.77
2023-05-05T04:47:39.790Z,13.43
2023-05-05T04:50:09.768Z,14.27
2023-05-05T04:52:36.823Z,15.40
2023-05-05T04:55:04.400Z,13.95
2023-05-05T04:57:31.418Z,11.65
2023-05-05T04:59:59.580Z,11.70
2023-05-05T05:02:27.150Z,12.98
2023-05-05T05:04:54.192Z,12.75
2023-05-05T05:07:21.388Z,12.07
2023-05-05T05:09:48.225Z,15.93
2023-05-05T05:12:15.065Z,17.08
2023-05-05T05:14:41.951Z,12.55
2023-05-05T05:17:08.859Z,11.10
2023-05-05T05:19:35.905Z,14.05
2023-05-05T05:22:02.677Z,12.27
2023-05-05T05:24:30.058Z,12.95
2023-05-05T05:26:56.946Z,12.18
2023-05-05T05:29:23.712Z,15.55
2023-05-05T05:31:50.561Z,13.68
2023-05-05T05:34:17.680Z,10.98
2023-05-05T05:36:44.523Z,12.02
2023-05-05T05:39:11.434Z,12.82
2023-05-05T05:41:38.423Z,13.55
2023-05-05T05:44:05.334Z,10.68
2023-05-05T05:46:32.314Z,16.42
2023-05-05T05:48:59.153Z,12.13
2023-05-05T05:51:26.442Z,11.95
2023-05-05T05:53:58.697Z,9.02
2023-05-05T05:56:25.902Z,9.88
2023-05-05T05:58:53.031Z,15.45
2023-05-05T06:01:19.931Z,9.82
2023-05-05T06:03:46.951Z,13.13
2023-05-05T06:06:13.869Z,10.52
2023-05-05T06:08:41.036Z,13.43
2023-05-05T06:11:07.971Z,11.68
2023-05-05T06:13:34.819Z,12.68
2023-05-05T06:16:02.144Z,11.75
2023-05-05T06:18:28.984Z,7.03
2023-05-05T06:20:55.899Z,13.85
2023-05-05T06:23:22.748Z,9.52
2023-05-05T06:25:55.858Z,11.00
2023-05-05T06:28:22.843Z,12.10
2023-05-05T06:30:49.973Z,9.60
2023-05-05T06:33:16.968Z,11.23
2023-05-05T06:35:43.861Z,8.40
2023-05-05T06:38:10.774Z,11.48
2023-05-05T06:40:38.175Z,10.13
2023-05-05T06:43:05.638Z,12.48
2023-05-05T06:45:32.644Z,10.82
2023-05-05T06:47:59.961Z,9.55
2023-05-05T06:50:26.879Z,11.45
2023-05-05T06:53:00.159Z,12.73
2023-05-05T06:55:27.984Z,10.85
2023-05-05T06:57:57.460Z,10.73
2023-05-05T07:00:27.939Z,12.13
2023-05-05T07:03:01.697Z,9.98
2023-05-05T07:05:28.677Z,13.85
2023-05-05T07:07:56.869Z,13.40
2023-05-05T07:10:28.656Z,14.25
2023-05-05T07:12:55.636Z,14.23
2023-05-05T07:15:28.610Z,18.17
2023-05-05T07:17:57.159Z,17.17
2023-05-05T07:20:24.558Z,11.75
2023-05-05T07:22:51.986Z,13.05
2023-05-05T07:25:58.528Z,14.05
2023-05-05T07:28:25.823Z,11.05
2023-05-05T07:30:53.060Z,12.18
2023-05-05T07:33:20.023Z,9.13
2023-05-05T07:35:47.091Z,14.05
2023-05-05T07:38:14.458Z,12.02
2023-05-05T07:40:45.213Z,11.93
2023-05-05T07:43:12.174Z,12.23
2023-05-05T07:45:39.148Z,15.30
2023-05-05T07:48:06.626Z,13.32
2023-05-05T07:50:34.050Z,14.00
2023-05-05T07:53:10.547Z,13.63
2023-05-05T07:55:41.574Z,12.13
2023-05-05T07:58:14.249Z,10.90
2023-05-05T08:00:41.363Z,11.45
2023-05-05T08:03:11.338Z,12.00
2023-05-05T08:05:39.325Z,11.48
2023-05-05T08:08:09.046Z,17.65
2023-05-05T08:10:40.989Z,15.43
2023-05-05T08:13:08.316Z,11.45
2023-05-05T08:15:35.469Z,14.20
2023-05-05T08:18:02.350Z,12.85
2023-05-05T08:20:30.015Z,10.77
2023-05-05T08:22:57.093Z,9.95
2023-05-05T08:25:24.621Z,11.65
2023-05-05T08:27:51.672Z,11.65
2023-05-05T08:30:21.056Z,11.57
2023-05-05T08:32:48.719Z,11.85
2023-05-05T08:35:15.789Z,13.13
2023-05-05T08:37:42.752Z,17.05
2023-05-05T08:40:14.389Z,11.52
2023-05-05T08:42:42.364Z,14.25
2023-05-05T08:45:11.199Z,13.07
2023-05-05T08:47:39.518Z,14.45
2023-05-05T08:50:10.029Z,19.52
2023-05-05T08:52:54.195Z,13.90
2023-05-05T08:55:26.850Z,15.40
2023-05-05T08:57:56.958Z,15.55
2023-05-05T09:00:50.886Z,15.77
2023-05-05T09:03:18.089Z,13.23
2023-05-05T09:05:45.478Z,17.58
2023-05-05T09:08:16.220Z,17.05
2023-05-05T09:10:53.270Z,18.45
2023-05-05T09:13:20.299Z,13.15
2023-05-05T09:15:57.817Z,11.35
2023-05-05T09:18:46.250Z,14.07
2023-05-05T09:22:38.124Z,12.93
2023-05-05T09:25:18.253Z,17.45
2023-05-05T09:27:55.075Z,14.23
2023-05-05T09:30:46.954Z,12.75
2023-05-05T09:36:43.651Z,13.20
2023-05-05T09:39:11.654Z,11.18
2023-05-05T09:41:40.423Z,10.43
2023-05-05T09:44:07.828Z,11.60
2023-05-05T09:46:44.154Z,12.32
2023-05-05T09:49:34.197Z,13.88
2023-05-05T09:59:34.825Z,13.10
2023-05-05T10:02:13.600Z,11.85
2023-05-05T10:04:41.139Z,9.98
2023-05-05T10:07:32.022Z,13.48
2023-05-05T10:09:59.167Z,9.50
2023-05-05T10:12:27.305Z,9.88
2023-05-05T10:14:57.858Z,10.02
2023-05-05T10:17:27.290Z,11.13
2023-05-05T10:20:00.480Z,14.27
2023-05-05T10:22:36.725Z,10.23
2023-05-05T10:25:14.896Z,13.35
2023-05-05T10:28:01.121Z,13.50
2023-05-05T10:30:46.353Z,14.68
2023-05-05T10:33:31.919Z,15.88
2023-05-05T10:36:11.159Z,14.70
2023-05-05T10:38:58.072Z,16.45
2023-05-05T10:47:53.584Z,13.60
2023-05-05T10:50:53.374Z,14.45
2023-05-05T10:53:37.170Z,13.13
2023-05-05T10:59:47.931Z,14.25
2023-05-05T11:02:27.673Z,17.13
2023-05-05T11:05:07.515Z,18.85
2023-05-05T11:07:35.433Z,15.27
2023-05-05T11:10:06.355Z,17.50
2023-05-05T11:13:00.475Z,14.88
2023-05-05T11:15:30.964Z,14.00
2023-05-05T11:18:08.214Z,16.33
2023-05-05T11:20:43.587Z,13.75
2023-05-05T11:23:10.542Z,18.20
2023-05-05T11:25:39.350Z,16.63
2023-05-05T11:28:25.758Z,16.20
2023-05-05T11:31:18.766Z,14.88
2023-05-05T11:33:46.313Z,16.90
2023-05-05T11:36:16.766Z,17.45
2023-05-05T11:39:10.340Z,15.35
2023-05-05T11:42:08.011Z,19.75
2023-05-05T11:44:37.550Z,15.10
2023-05-05T11:47:04.597Z,17.15
2023-05-05T11:49:37.047Z,16.25
2023-05-05T11:52:05.889Z,18.77
2023-05-05T11:54:34.616Z,18.20
2023-05-05T11:57:05.318Z,19.52
2023-05-05T11:59:32.939Z,21.73
2023-05-05T12:02:01.052Z,19.88
2023-05-05T12:04:28.214Z,18.80
2023-05-05T12:06:55.898Z,18.10
2023-05-05T12:09:24.198Z,20.40
2023-05-05T12:11:57.366Z,20.40
2023-05-05T12:14:25.902Z,18.02
2023-05-05T12:17:23.111Z,20.00
2023-05-05T12:19:52.739Z,20.50
2023-05-05T12:22:23.416Z,19.33
2023-05-05T12:25:06.329Z,26.55
2023-05-05T12:27:35.690Z,18.13
2023-05-05T12:30:15.952Z,22.17
2023-05-05T12:32:44.195Z,20.27
2023-05-05T12:35:17.667Z,21.55
2023-05-05T12:37:46.604Z,18.92
2023-05-05T12:40:48.720Z,20.52
2023-05-05T12:43:36.139Z,18.85
2023-05-05T12:46:09.981Z,17.98
2023-05-05T12:48:40.514Z,19.40
2023-05-05T12:51:23.490Z,18.10
2023-05-05T12:54:02.999Z,18.55
2023-05-05T12:56:35.428Z,20.98
2023-05-05T12:59:07.736Z,18.60
2023-05-05T13:01:37.257Z,20.83
2023-05-05T13:04:11.000Z,24.38
2023-05-05T13:06:47.229Z,21.38
2023-05-05T13:09:25.407Z,20.50
2023-05-05T13:11:53.507Z,19.38
2023-05-05T13:14:20.839Z,18.58
2023-05-05T13:16:48.578Z,19.33
2023-05-05T13:19:15.999Z,17.08
2023-05-05T13:21:43.181Z,19.52
2023-05-05T13:24:21.293Z,19.77
2023-05-05T13:26:53.372Z,18.08
2023-05-05T13:29:20.724Z,17.80
2023-05-05T13:31:47.936Z,18.65
2023-05-05T13:34:15.351Z,21.52
2023-05-05T13:36:42.850Z,19.85
2023-05-05T13:39:11.323Z,20.38
2023-05-05T13:41:38.498Z,23.00
2023-05-05T13:44:06.568Z,21.38
2023-05-05T13:46:33.584Z,22.88
2023-05-05T13:49:00.853Z,19.27
2023-05-05T13:51:28.059Z,21.73
2023-05-05T13:53:55.367Z,23.55
2023-05-05T13:56:26.152Z,23.15
2023-05-05T13:58:53.756Z,20.35
2023-05-05T14:01:22.223Z,21.05
2023-05-05T14:03:54.977Z,21.13
2023-05-05T14:06:24.331Z,18.70
2023-05-05T14:08:51.909Z,22.90
2023-05-05T14:11:21.148Z,21.17
2023-05-05T14:13:50.302Z,23.33
2023-05-05T14:16:18.449Z,21.38
2023-05-05T14:18:45.841Z,23.35
2023-05-05T14:21:13.332Z,21.52
2023-05-05T14:23:41.025Z,17.98
2023-05-05T14:26:09.850Z,19.80
2023-05-05T14:28:36.758Z,21.52
2023-05-05T14:31:03.735Z,19.60
2023-05-05T14:33:30.698Z,20.08
2023-05-05T14:35:57.826Z,18.45
2023-05-05T14:38:24.854Z,17.70
2023-05-05T14:40:52.072Z,17.65
2023-05-05T14:43:19.246Z,18.65
2023-05-05T14:45:46.288Z,22.08
2023-05-05T14:48:13.461Z,17.83
2023-05-05T14:50:42.433Z,18.42
2023-05-05T14:53:09.574Z,17.92
2023-05-05T14:55:37.263Z,23.73
2023-05-05T14:58:04.191Z,21.58
2023-05-05T15:00:31.148Z,19.02
2023-05-05T15:02:59.123Z,22.90
2023-05-05T15:05:26.377Z,18.40
2023-05-05T15:07:53.637Z,17.70
2023-05-05T15:10:22.066Z,18.90
2023-05-05T15:12:49.359Z,18.15
2023-05-05T15:15:17.213Z,16.65
2023-05-05T15:17:45.163Z,20.30
2023-05-05T15:20:12.571Z,19.98
2023-05-05T15:22:39.922Z,20.30
2023-05-05T15:25:11.079Z,13.85
2023-05-05T15:27:39.908Z,9.10
2023-05-05T15:30:07.967Z,12.43
2023-05-05T15:32:36.175Z,17.10
2023-05-05T15:35:04.826Z,13.40
2023-05-05T15:37:32.284Z,12.57
2023-05-05T15:39:59.945Z,11.27
2023-05-05T15:42:30.221Z,11.05
2023-05-05T15:45:00.276Z,6.45
2023-05-05T15:47:27.308Z,9.90
2023-05-05T15:49:54.629Z,6.82
2023-05-05T15:52:22.644Z,8.02
2023-05-05T15:54:49.827Z,8.40
2023-05-05T15:57:17.573Z,8.23
2023-05-05T15:59:44.613Z,10.05
2023-05-05T16:02:12.015Z,9.13
2023-05-05T16:04:39.384Z,8.00
2023-05-05T16:07:06.637Z,6.90
2023-05-05T16:09:34.588Z,6.95
2023-05-05T16:12:02.903Z,8.60
2023-05-05T16:14:33.502Z,7.30
2023-05-05T16:17:04.878Z,8.27
2023-05-05T16:19:32.651Z,12.27
2023-05-05T16:22:00.165Z,7.55
2023-05-05T16:24:27.551Z,7.15
2023-05-05T16:26:54.938Z,8.13
2023-05-05T16:29:23.074Z,5.55
2023-05-05T16:31:50.286Z,21.92
2023-05-05T16:34:17.544Z,7.78
2023-05-05T16:36:44.946Z,6.63
2023-05-05T16:39:12.329Z,6.97
2023-05-05T16:41:40.161Z,6.28
2023-05-05T16:44:07.740Z,6.70
2023-05-05T16:46:40.310Z,5.57
2023-05-05T16:49:07.726Z,8.65
2023-05-05T16:51:34.969Z,7.38
2023-05-05T16:54:02.127Z,4.53
2023-05-05T16:56:29.408Z,5.10
2023-05-05T16:58:56.738Z,4.53
2023-05-05T17:01:24.624Z,11.68
2023-05-05T17:03:52.246Z,5.32
2023-05-05T17:06:19.625Z,6.82
2023-05-05T17:08:46.629Z,5.20
2023-05-05T17:11:14.055Z,6.20
2023-05-05T17:13:41.171Z,6.30
2023-05-05T17:16:09.020Z,6.55
2023-05-05T17:18:37.279Z,6.57
2023-05-05T17:21:04.791Z,6.43
2023-05-05T17:23:32.002Z,4.70
2023-05-05T17:26:00.725Z,5.32
2023-05-05T17:28:29.856Z,5.05
2023-05-05T17:31:00.394Z,3.53
2023-05-05T17:33:28.252Z,4.97
2023-05-05T17:35:55.798Z,4.90
2023-05-05T17:38:23.363Z,7.53
2023-05-05T17:40:50.376Z,4.55
2023-05-05T17:43:17.294Z,5.03
2023-05-05T17:45:44.420Z,6.38
2023-05-05T17:48:11.766Z,6.80
2023-05-05T17:50:38.664Z,7.43
2023-05-05T17:53:05.952Z,5.18
2023-05-05T17:55:33.101Z,6.07
2023-05-05T17:58:00.045Z,6.25
2023-05-05T18:00:27.103Z,5.30
2023-05-05T18:02:54.286Z,6.20
2023-05-05T18:05:21.528Z,5.55
2023-05-05T18:07:48.526Z,5.88
2023-05-05T18:10:15.590Z,5.25
2023-05-05T18:12:42.697Z,5.32
2023-05-05T18:15:10.556Z,7.13
2023-05-05T18:17:38.054Z,4.32
2023-05-05T18:20:07.339Z,5.75
2023-05-05T18:22:34.726Z,5.55
2023-05-05T18:25:02.105Z,6.68
2023-05-05T18:27:29.446Z,6.10
2023-05-05T18:29:56.592Z,6.75
2023-05-05T18:32:24.315Z,6.88
2023-05-05T18:34:51.492Z,8.13
2023-05-05T18:37:19.469Z,9.18
2023-05-05T18:39:46.659Z,6.78
2023-05-05T18:42:13.804Z,6.68
2023-05-05T18:44:41.634Z,5.95
2023-05-05T18:47:09.294Z,5.22
2023-05-05T18:49:36.931Z,5.43
2023-05-05T18:52:05.071Z,6.20
2023-05-05T18:54:32.542Z,6.47
2023-05-05T18:57:00.020Z,7.22
2023-05-05T18:59:27.530Z,6.95
2023-05-05T19:01:55.061Z,6.47
2023-05-05T19:04:30.706Z,5.70
2023-05-05T19:07:00.400Z,7.60
2023-05-05T19:09:28.259Z,7.53
2023-05-05T19:11:55.667Z,6.28
2023-05-05T19:14:23.893Z,7.50
2023-05-05T19:16:51.480Z,7.57
2023-05-05T19:19:19.072Z,7.60
2023-05-05T19:21:47.101Z,5.05
2023-05-05T19:24:19.762Z,4.68
2023-05-05T19:26:47.163Z,6.63
2023-05-05T19:29:14.580Z,6.97
2023-05-05T19:31:42.357Z,5.05
2023-05-05T19:34:09.862Z,8.02
2023-05-05T19:36:37.552Z,6.07
2023-05-05T19:39:05.492Z,7.65
2023-05-05T19:41:35.486Z,11.55
2023-05-05T19:44:03.562Z,6.63
2023-05-05T19:46:35.176Z,6.15
2023-05-05T19:49:03.264Z,8.90
2023-05-05T19:51:31.666Z,11.25
2023-05-05T19:53:59.774Z,8.55
2023-05-05T19:56:27.438Z,6.88
2023-05-05T19:59:00.796Z,7.82
2023-05-05T20:01:29.421Z,7.45
2023-05-05T20:03:57.632Z,6.47
2023-05-05T20:06:25.258Z,7.82
2023-05-05T20:08:52.937Z,6.95
2023-05-05T20:11:21.868Z,5.75
2023-05-05T20:13:50.230Z,6.70
2023-05-05T20:16:18.011Z,5.45
2023-05-05T20:18:45.567Z,6.20
2023-05-05T20:21:19.402Z,5.45
2023-05-05T20:23:47.130Z,7.88
2023-05-05T20:26:15.106Z,5.45
2023-05-05T20:28:45.257Z,9.15
2023-05-05T20:31:14.728Z,6.63
2023-05-05T20:33:42.146Z,8.55
2023-05-05T20:36:09.741Z,7.50
2023-05-05T20:38:37.050Z,7.80
2023-05-05T20:41:05.298Z,10.63
2023-05-05T20:43:32.699Z,8.48
2023-05-05T20:45:59.939Z,6.72
2023-05-05T20:48:27.338Z,7.88
2023-05-05T20:50:55.117Z,6.85
2023-05-05T20:53:24.405Z,5.93
2023-05-05T20:55:52.033Z,9.88
2023-05-05T20:58:19.103Z,5.65
2023-05-05T21:00:46.433Z,12.05
2023-05-05T21:03:14.653Z,11.15
2023-05-05T21:05:44.123Z,7.80
2023-05-05T21:08:11.735Z,8.35
2023-05-05T21:10:40.201Z,10.80
2023-05-05T21:13:07.763Z,11.07
2023-05-05T21:15:37.399Z,9.90
2023-05-05T21:18:07.898Z,14.63
2023-05-05T21:20:42.972Z,12.48
2023-05-05T21:29:05.257Z,11.95
2023-05-05T21:31:33.002Z,16.17
2023-05-05T21:34:00.264Z,14.88
2023-05-05T21:36:27.809Z,18.08
2023-05-05T21:38:59.764Z,17.10
2023-05-05T21:41:28.114Z,20.02
2023-05-05T21:43:56.731Z,18.60
2023-05-05T21:46:24.504Z,20.23
2023-05-05T21:48:51.725Z,21.92
2023-05-05T21:51:20.132Z,21.05
2023-05-05T21:53:47.492Z,21.08
2023-05-05T21:56:14.757Z,22.50
2023-05-05T21:58:42.115Z,22.27
2023-05-05T22:01:09.623Z,24.50
2023-05-05T22:03:36.959Z,23.55
2023-05-05T22:06:05.439Z,23.73
2023-05-05T22:08:32.921Z,25.08
2023-05-05T22:11:00.061Z,25.00
2023-05-05T22:13:27.052Z,22.73
2023-05-05T22:15:54.195Z,22.40
2023-05-05T22:18:21.446Z,23.92
2023-05-05T22:20:48.988Z,23.98
2023-05-05T22:23:16.723Z,24.00
2023-05-05T22:25:44.768Z,22.23
2023-05-05T22:28:12.167Z,25.02
2023-05-05T22:30:40.749Z,26.30
2023-05-05T22:33:09.410Z,26.40
2023-05-05T22:35:37.973Z,22.40
2023-05-05T22:38:05.342Z,24.77
2023-05-05T22:40:32.559Z,25.92
2023-05-05T22:42:59.789Z,25.75
2023-05-05T22:45:27.305Z,26.50
2023-05-05T22:47:54.623Z,23.00
2023-05-05T22:50:21.679Z,27.45
2023-05-05T22:52:48.571Z,24.40
2023-05-05T22:55:16.145Z,24.23
2023-05-05T22:57:43.660Z,25.63
2023-05-05T23:00:11.185Z,27.10
2023-05-05T23:02:39.325Z,25.63
2023-05-05T23:05:06.716Z,23.08
2023-05-05T23:07:33.995Z,22.80
2023-05-05T23:10:01.332Z,22.25
2023-05-05T23:12:28.704Z,21.30
2023-05-05T23:14:55.837Z,25.20
2023-05-05T23:17:23.772Z,24.92
2023-05-05T23:19:50.969Z,25.92
2023-05-05T23:22:17.967Z,24.00
2023-05-05T23:24:44.889Z,24.85
2023-05-05T23:27:13.626Z,24.85
2023-05-05T23:29:41.209Z,24.95
2023-05-05T23:32:08.573Z,22.88
2023-05-05T23:34:35.683Z,25.33
2023-05-05T23:37:04.607Z,22.10
2023-05-05T23:39:34.820Z,19.52
2023-05-05T23:42:01.882Z,22.23
2023-05-05T23:44:28.960Z,19.38
2023-05-05T23:46:56.056Z,22.67
2023-05-05T23:49:24.739Z,18.92
2023-05-05T23:51:52.360Z,18.83
2023-05-05T23:54:19.648Z,21.17
2023-05-05T23:56:47.886Z,17.38
2023-05-05T23:59:15.435Z,22.60
